Time;durP1;ratioP1;P1;durP2;ratioP2;P2;SDS_P1;SDS_P2;PMS_P1;PMS_P2;Temp;Humidity;BMP_temperature;BMP_pressure;BME280_temperature;BME280_humidity;BME280_pressure;Samples;Min_cycle;Max_cycle;Signal;HPM_P1;HPM_P2
2023/09/20 00:00:11;;;;;;;9.25;2.67;;;;;;;16.58;86.43;100797.53;4948444;28;20142;-71
2023/09/20 00:02:39;;;;;;;5.63;2.47;;;;;;;16.56;86.57;100794.97;4963718;28;20122;-71
2023/09/20 00:05:14;;;;;;;8.02;2.40;;;;;;;16.50;86.19;100792.78;4950006;28;20051;-71
2023/09/20 00:07:41;;;;;;;5.75;2.35;;;;;;;16.47;86.20;100798.63;4952772;28;20031;-71
2023/09/20 00:10:12;;;;;;;4.88;2.05;;;;;;;16.44;86.92;100804.41;4966651;28;20042;-71
2023/09/20 00:12:38;;;;;;;8.27;2.70;;;;;;;16.40;86.71;100791.97;4952810;28;20043;-71
2023/09/20 00:15:05;;;;;;;7.05;2.60;;;;;;;16.33;87.78;100785.38;4952157;28;20540;-71
2023/09/20 00:17:33;;;;;;;5.53;2.25;;;;;;;16.29;87.73;100792.16;4952499;28;20487;-71
2023/09/20 00:19:59;;;;;;;11.88;2.30;;;;;;;16.25;87.70;100791.59;4971709;28;20521;-71
2023/09/20 00:22:24;;;;;;;10.50;2.42;;;;;;;16.20;87.60;100796.66;4969426;28;20057;-71
2023/09/20 00:24:50;;;;;;;8.23;2.30;;;;;;;16.11;88.05;100791.22;4952088;29;20480;-71
2023/09/20 00:27:16;;;;;;;10.18;2.60;;;;;;;16.02;88.74;100791.06;4983118;28;20027;-71
2023/09/20 00:29:41;;;;;;;4.88;2.33;;;;;;;15.99;89.10;100791.41;4982576;28;20038;-71
2023/09/20 00:32:08;;;;;;;6.75;2.30;;;;;;;15.92;89.43;100775.66;4952817;29;20891;-71
2023/09/20 00:34:33;;;;;;;8.18;2.30;;;;;;;15.88;89.75;100786.06;4952106;28;20047;-71
2023/09/20 00:36:58;;;;;;;8.98;2.15;;;;;;;15.81;90.44;100785.78;4983427;28;20078;-71
2023/09/20 00:39:24;;;;;;;6.70;2.58;;;;;;;15.77;90.68;100792.56;4952242;28;20966;-71
2023/09/20 00:41:49;;;;;;;5.07;2.50;;;;;;;15.75;90.66;100780.00;4951443;28;20448;-71
2023/09/20 00:44:15;;;;;;;9.32;2.50;;;;;;;15.72;91.23;100780.31;4951918;28;20073;-72
2023/09/20 00:46:42;;;;;;;6.85;2.30;;;;;;;15.61;91.37;100767.56;4949974;28;20078;-71
2023/09/20 00:49:07;;;;;;;8.23;2.42;;;;;;;15.57;92.06;100766.13;4983057;28;20476;-71
2023/09/20 00:51:33;;;;;;;7.97;2.33;;;;;;;15.58;91.34;100787.06;4951721;28;20035;-71
2023/09/20 00:54:03;;;;;;;5.78;2.72;;;;;;;15.59;91.43;100777.84;4950694;28;20423;-71
2023/09/20 00:56:28;;;;;;;6.38;2.40;;;;;;;15.58;92.22;100773.38;4965772;28;20035;-71
2023/09/20 00:58:56;;;;;;;8.07;2.28;;;;;;;15.63;91.45;100772.94;4982871;28;20142;-71
2023/09/20 01:01:26;;;;;;;6.88;2.55;;;;;;;15.66;92.84;100779.00;4951089;28;20518;-71
2023/09/20 01:03:52;;;;;;;5.03;2.63;;;;;;;15.68;91.98;100776.13;4982764;28;20043;-71
2023/09/20 01:06:17;;;;;;;7.95;2.08;;;;;;;15.71;92.34;100782.16;4951184;28;20038;-71
2023/09/20 01:08:46;;;;;;;5.72;2.10;;;;;;;15.72;92.34;100786.66;4962808;28;20041;-72
2023/09/20 01:11:12;;;;;;;7.95;2.40;;;;;;;15.73;92.17;100785.66;4969869;28;20093;-71
2023/09/20 01:13:38;;;;;;;7.72;2.15;;;;;;;15.75;92.66;100780.00;4999798;28;20399;-71
2023/09/20 01:16:03;;;;;;;8.27;2.83;;;;;;;15.77;92.19;100775.25;4969691;28;20412;-71
2023/09/20 01:18:28;;;;;;;9.60;2.45;;;;;;;15.81;92.08;100773.94;4966573;28;20030;-72
2023/09/20 01:20:54;;;;;;;5.95;2.65;;;;;;;15.81;92.51;100771.22;4970594;28;20093;-71
2023/09/20 01:23:20;;;;;;;4.60;2.00;;;;;;;15.79;91.76;100771.34;4951109;28;20039;-71
2023/09/20 01:25:47;;;;;;;11.75;2.35;;;;;;;15.79;91.79;100774.06;4981719;28;20046;-72
2023/09/20 01:28:12;;;;;;;7.00;2.38;;;;;;;15.77;92.13;100770.63;4951527;29;20058;-71
2023/09/20 01:30:41;;;;;;;7.93;2.20;;;;;;;15.77;92.75;100758.78;4981604;28;20368;-71
2023/09/20 01:33:08;;;;;;;6.13;2.55;;;;;;;15.75;92.69;100771.78;4965850;28;20085;-71
2023/09/20 01:35:36;;;;;;;10.30;2.60;;;;;;;15.72;92.95;100755.63;4965982;28;20031;-71
2023/09/20 01:38:06;;;;;;;5.95;2.50;;;;;;;15.70;92.71;100757.63;4951406;28;20480;-71
2023/09/20 01:40:33;;;;;;;4.85;1.92;;;;;;;15.68;92.69;100755.06;4965021;28;20110;-71
2023/09/20 01:43:06;;;;;;;8.15;2.22;;;;;;;15.64;92.59;100752.75;4981966;28;20035;-71
2023/09/20 01:45:34;;;;;;;6.57;2.17;;;;;;;15.62;93.57;100746.50;4957857;28;20105;-71
2023/09/20 01:48:00;;;;;;;11.30;1.95;;;;;;;15.60;93.31;100752.13;4965091;28;20043;-72
2023/09/20 01:50:27;;;;;;;9.95;2.40;;;;;;;15.58;94.21;100745.94;4962443;28;20071;-71
2023/09/20 01:52:54;;;;;;;12.88;2.92;;;;;;;15.57;94.27;100736.84;4963313;28;20840;-71
2023/09/20 01:55:21;;;;;;;5.93;2.30;;;;;;;15.56;94.18;100734.22;4959904;28;20035;-71
2023/09/20 01:57:49;;;;;;;10.88;2.92;;;;;;;15.57;94.91;100738.69;4965141;28;20122;-71
2023/09/20 02:00:22;;;;;;;11.95;2.50;;;;;;;15.56;93.38;100729.63;4991349;28;20599;-71
2023/09/20 02:02:50;;;;;;;12.82;2.83;;;;;;;15.59;94.25;100728.47;4961070;28;20066;-72
2023/09/20 02:05:17;;;;;;;6.70;2.10;;;;;;;15.63;94.67;100723.56;4991691;28;20042;-72
2023/09/20 02:07:45;;;;;;;5.78;2.50;;;;;;;15.68;94.14;100713.91;4963521;28;20027;-71
2023/09/20 02:10:11;;;;;;;8.70;2.25;;;;;;;15.72;93.67;100729.06;4949766;28;20106;-71
2023/09/20 02:12:37;;;;;;;7.20;2.60;;;;;;;15.76;94.50;100715.88;4950385;29;20451;-72
2023/09/20 02:15:07;;;;;;;10.40;2.78;;;;;;;15.80;94.25;100718.19;4980644;28;20075;-71
2023/09/20 02:17:36;;;;;;;7.93;2.70;;;;;;;15.86;94.44;100711.28;4965002;28;20430;-71
2023/09/20 02:20:08;;;;;;;8.52;2.25;;;;;;;15.88;93.89;100708.38;4997900;28;20402;-71
2023/09/20 02:22:35;;;;;;;;;;;;;;;15.90;93.06;100712.72;4965266;28;20031;-71
2023/09/20 02:25:01;;;;;;;6.15;2.67;;;;;;;15.91;94.14;100711.69;4949993;28;19922;-70
2023/09/20 02:27:27;;;;;;;7.93;2.55;;;;;;;15.92;94.05;100704.31;4949969;29;20047;-71
2023/09/20 02:29:54;;;;;;;7.80;2.42;;;;;;;15.96;94.21;100697.53;4949580;28;20134;-71
2023/09/20 02:32:19;;;;;;;10.27;2.22;;;;;;;15.99;93.77;100702.69;4950117;28;20427;-72
2023/09/20 02:34:44;;;;;;;10.18;2.70;;;;;;;16.00;93.81;100699.81;4949943;28;20043;-71
2023/09/20 02:37:10;;;;;;;9.98;2.75;;;;;;;16.02;93.57;100703.25;4950118;28;20039;-71
2023/09/20 02:39:35;;;;;;;3.47;2.10;;;;;;;16.00;93.51;100704.44;4983100;28;20038;-71
2023/09/20 02:42:02;;;;;;;5.18;2.20;;;;;;;15.99;93.47;100710.91;4983955;28;20031;-71
2023/09/20 02:44:27;;;;;;;8.52;2.38;;;;;;;15.97;93.12;100699.25;4949563;28;20081;-71
2023/09/20 02:46:53;;;;;;;8.73;2.90;;;;;;;15.95;94.15;100695.81;4964849;28;20039;-71
2023/09/20 02:49:20;;;;;;;6.28;2.30;;;;;;;15.96;93.84;100686.53;4981175;28;20126;-73
2023/09/20 02:51:47;;;;;;;6.38;2.33;;;;;;;15.96;93.45;100686.53;4950042;28;20562;-71
2023/09/20 02:54:13;;;;;;;7.18;2.38;;;;;;;15.97;94.25;100688.28;4980483;28;20520;-71
2023/09/20 02:56:39;;;;;;;7.20;2.35;;;;;;;15.93;93.85;100682.22;4949423;29;20135;-72
2023/09/20 02:59:07;;;;;;;7.80;2.90;;;;;;;15.92;94.36;100680.50;4980600;28;20043;-71
2023/09/20 03:01:33;;;;;;;4.72;2.40;;;;;;;15.91;94.55;100676.03;4979861;28;20073;-71
2023/09/20 03:03:59;;;;;;;10.20;2.90;;;;;;;15.89;93.85;100682.66;4980880;28;20171;-71
2023/09/20 03:06:24;;;;;;;8.43;2.78;;;;;;;15.86;94.78;100678.34;4965045;28;20062;-71
2023/09/20 03:08:51;;;;;;;7.60;2.38;;;;;;;15.82;95.06;100683.25;4980309;28;20031;-71
2023/09/20 03:11:21;;;;;;;6.45;2.40;;;;;;;15.84;94.27;100677.63;4963708;28;20054;-71
2023/09/20 03:13:47;;;;;;;6.47;2.08;;;;;;;15.81;95.13;100667.81;4964136;28;20118;-71
2023/09/20 03:16:19;;;;;;;5.88;2.47;;;;;;;15.79;95.51;100674.47;4963745;28;20039;-71
2023/09/20 03:18:45;;;;;;;5.60;2.58;;;;;;;15.78;95.19;100664.50;4980355;28;20510;-71
2023/09/20 03:21:11;;;;;;;6.28;2.78;;;;;;;15.76;95.74;100658.28;4964045;28;20043;-71
2023/09/20 03:23:38;;;;;;;6.70;2.33;;;;;;;15.73;95.35;100653.97;4949111;28;20510;-71
2023/09/20 03:26:04;;;;;;;20.48;2.95;;;;;;;15.73;95.69;100656.72;4962775;28;20039;-71
2023/09/20 03:28:33;;;;;;;8.27;3.08;;;;;;;15.72;96.00;100651.41;4964374;28;20507;-71
2023/09/20 03:31:02;;;;;;;4.80;2.38;;;;;;;15.70;95.53;100653.41;4948731;28;20035;-71
2023/09/20 03:33:31;;;;;;;8.35;2.42;;;;;;;15.66;96.11;100650.09;4980061;28;20122;-72
2023/09/20 03:36:02;;;;;;;7.28;2.90;;;;;;;15.62;96.48;100662.38;4980418;28;20405;-71
2023/09/20 03:38:27;;;;;;;7.63;3.15;;;;;;;15.63;95.82;100668.72;4980156;28;20031;-71
2023/09/20 03:40:53;;;;;;;7.82;2.38;;;;;;;15.61;95.86;100670.72;4989463;28;20034;-71
2023/09/20 03:43:18;;;;;;;15.45;3.13;;;;;;;15.56;96.38;100666.53;5003461;28;20070;-72
2023/09/20 03:45:47;;;;;;;5.65;3.00;;;;;;;15.56;96.92;100672.03;4970309;28;20568;-71
2023/09/20 03:48:15;;;;;;;9.13;2.33;;;;;;;15.51;96.99;100668.00;4997985;28;20066;-71
2023/09/20 03:50:43;;;;;;;10.02;2.88;;;;;;;15.46;96.90;100667.59;4953175;29;20131;-71
2023/09/20 03:53:09;;;;;;;7.70;2.53;;;;;;;15.43;96.96;100667.88;4967505;28;20039;-71
2023/09/20 03:55:35;;;;;;;9.50;2.55;;;;;;;15.41;97.35;100661.69;4967661;28;20031;-71
2023/09/20 03:58:02;;;;;;;6.22;2.15;;;;;;;15.40;97.19;100660.81;4984016;28;20565;-71
2023/09/20 04:00:28;;;;;;;9.68;2.50;;;;;;;15.36;98.07;100677.72;4983198;28;20062;-72
2023/09/20 04:02:55;;;;;;;4.07;2.15;;;;;;;15.32;97.33;100663.41;4984403;28;20035;-71
2023/09/20 04:05:21;;;;;;;8.68;2.80;;;;;;;15.29;97.94;100656.38;4967761;28;20415;-71
2023/09/20 04:07:47;;;;;;;3.58;2.60;;;;;;;15.26;98.48;100662.13;4984134;28;20027;-71
2023/09/20 04:10:15;;;;;;;6.43;2.85;;;;;;;15.23;98.56;100664.28;4983017;28;20051;-71
2023/09/20 04:12:41;;;;;;;7.55;2.47;;;;;;;15.20;98.73;100662.72;4967766;28;20031;-71
2023/09/20 04:15:10;;;;;;;8.60;2.83;;;;;;;15.17;99.01;100665.75;4983168;28;20039;-71
2023/09/20 04:17:36;;;;;;;7.97;2.15;;;;;;;15.15;98.98;100656.78;4983266;28;20435;-71
2023/09/20 04:20:06;;;;;;;9.93;2.88;;;;;;;15.11;99.04;100662.69;4951105;28;20074;-71
2023/09/20 04:22:33;;;;;;;7.78;2.97;;;;;;;15.09;99.66;100651.91;4983391;28;20067;-71
2023/09/20 04:24:59;;;;;;;5.47;2.58;;;;;;;15.04;99.64;100646.84;4952215;29;20071;-71
2023/09/20 04:27:25;;;;;;;4.75;2.40;;;;;;;15.02;99.94;100639.81;4967684;28;20039;-71
2023/09/20 04:29:52;;;;;;;9.07;3.67;;;;;;;14.98;99.96;100633.75;4974482;28;20430;-71
2023/09/20 04:32:18;;;;;;;9.13;2.65;;;;;;;14.95;100.00;100627.69;4967213;28;20567;-71
2023/09/20 04:34:45;;;;;;;7.30;2.80;;;;;;;14.92;100.00;100627.97;4953504;28;20101;-71
2023/09/20 04:37:12;;;;;;;11.75;2.97;;;;;;;14.88;100.00;100623.81;4983594;28;20436;-71
2023/09/20 04:39:39;;;;;;;9.63;2.95;;;;;;;14.85;100.00;100616.72;4982761;28;20524;-71
2023/09/20 04:42:07;;;;;;;5.88;2.75;;;;;;;14.87;100.00;100628.38;4999255;28;20026;-72
2023/09/20 04:44:32;;;;;;;10.07;2.72;;;;;;;14.88;100.00;100621.94;5002436;28;20043;-71
2023/09/20 04:46:58;;;;;;;9.25;2.80;;;;;;;14.86;100.00;100618.44;4981356;28;20380;-71
2023/09/20 04:49:24;;;;;;;9.25;2.53;;;;;;;14.83;100.00;100626.09;4983522;28;20031;-71
2023/09/20 04:51:50;;;;;;;5.72;2.92;;;;;;;14.80;100.00;100622.63;4965925;28;20082;-71
2023/09/20 04:54:15;;;;;;;7.78;2.80;;;;;;;14.78;100.00;100619.19;4982469;28;20039;-71
2023/09/20 04:56:47;;;;;;;14.18;3.42;;;;;;;14.77;100.00;100630.28;4966296;28;20039;-71
2023/09/20 04:59:14;;;;;;;10.85;3.20;;;;;;;14.76;100.00;100614.84;4966695;28;20057;-71
2023/09/20 05:01:42;;;;;;;5.13;2.42;;;;;;;14.74;100.00;100625.09;4981338;28;20448;-71
2023/09/20 05:04:13;;;;;;;10.15;2.75;;;;;;;14.74;100.00;100619.63;4989383;28;20403;-71
2023/09/20 05:06:42;;;;;;;8.23;2.63;;;;;;;14.70;100.00;100618.19;5002106;28;20449;-71
2023/09/20 05:09:08;;;;;;;11.52;3.13;;;;;;;14.70;100.00;100616.31;4966566;28;20451;-72
2023/09/20 05:11:34;;;;;;;8.13;2.90;;;;;;;14.72;100.00;100617.00;4992900;28;20034;-71
2023/09/20 05:14:00;;;;;;;5.40;2.78;;;;;;;14.73;100.00;100612.41;4984014;28;20031;-71
2023/09/20 05:16:26;;;;;;;8.48;2.92;;;;;;;14.73;100.00;100623.34;4969653;28;20042;-71
2023/09/20 05:18:52;;;;;;;7.93;2.80;;;;;;;14.73;100.00;100620.59;4991925;28;20583;-72
2023/09/20 05:21:18;;;;;;;5.88;3.03;;;;;;;14.71;100.00;100620.75;4981681;28;20027;-71
2023/09/20 05:23:44;;;;;;;8.45;2.83;;;;;;;14.72;100.00;100617.00;4981968;28;20402;-71
2023/09/20 05:26:10;;;;;;;8.45;2.78;;;;;;;14.70;100.00;100613.56;4949806;29;20038;-72
2023/09/20 05:28:36;;;;;;;8.23;2.70;;;;;;;14.68;100.00;100621.03;4950121;29;20811;-71
2023/09/20 05:31:03;;;;;;;10.15;2.80;;;;;;;14.65;100.00;100612.28;4965483;28;20035;-72
2023/09/20 05:33:30;;;;;;;4.55;2.50;;;;;;;14.65;100.00;100618.59;4951263;28;20094;-71
2023/09/20 05:35:57;;;;;;;7.38;2.70;;;;;;;14.66;100.00;100616.72;4951154;29;20046;-71
2023/09/20 05:38:24;;;;;;;10.10;3.25;;;;;;;14.67;100.00;100612.97;4951512;28;20507;-71
2023/09/20 05:40:49;;;;;;;8.07;3.10;;;;;;;14.67;100.00;100610.25;4950637;28;20035;-71
2023/09/20 05:43:16;;;;;;;11.48;3.22;;;;;;;14.70;100.00;100608.09;4951104;28;20605;-71
2023/09/20 05:45:41;;;;;;;7.85;3.05;;;;;;;14.72;100.00;100616.16;4965183;28;20430;-71
2023/09/20 05:48:07;;;;;;;6.55;3.03;;;;;;;14.72;100.00;100605.19;4950871;28;20031;-72
2023/09/20 05:50:35;;;;;;;8.75;3.10;;;;;;;14.79;100.00;100600.88;4951078;29;20384;-72
2023/09/20 05:53:06;;;;;;;7.65;3.13;;;;;;;14.81;100.00;100601.59;4950921;28;20050;-71
2023/09/20 05:55:43;;;;;;;9.25;3.30;;;;;;;14.83;100.00;100595.97;4950380;29;20527;-71
2023/09/20 05:58:09;;;;;;;9.20;3.30;;;;;;;14.84;100.00;100603.19;4950774;29;20039;-72
2023/09/20 06:00:35;;;;;;;8.95;2.92;;;;;;;14.89;100.00;100609.09;4950116;28;20193;-71
2023/09/20 06:03:01;;;;;;;8.60;2.90;;;;;;;14.90;100.00;100617.16;4950704;28;20086;-72
2023/09/20 06:05:26;;;;;;;11.30;3.13;;;;;;;14.94;100.00;100612.25;4950485;28;20129;-71
2023/09/20 06:07:55;;;;;;;7.75;2.80;;;;;;;14.97;100.00;100610.09;4951253;28;20454;-71
2023/09/20 06:10:22;;;;;;;5.93;2.60;;;;;;;15.01;100.00;100595.13;4992077;28;20049;-71
2023/09/20 06:12:48;;;;;;;10.90;3.28;;;;;;;15.02;100.00;100599.56;4959187;28;20047;-72
2023/09/20 06:15:14;;;;;;;8.63;3.00;;;;;;;15.10;100.00;100593.34;4980853;28;20039;-72
2023/09/20 06:17:40;;;;;;;7.05;2.58;;;;;;;15.09;100.00;100597.09;4950013;28;20851;-71
2023/09/20 06:20:12;;;;;;;9.00;2.85;;;;;;;15.13;100.00;100589.47;4950235;29;20126;-71
2023/09/20 06:22:40;;;;;;;5.65;2.35;;;;;;;15.14;100.00;100592.03;4950484;28;20454;-71
2023/09/20 06:25:06;;;;;;;6.68;2.20;;;;;;;15.17;100.00;100585.41;4949619;29;20047;-72
2023/09/20 06:27:32;;;;;;;6.95;2.22;;;;;;;15.23;100.00;100596.63;4950437;29;20085;-71
2023/09/20 06:29:58;;;;;;;7.40;2.60;;;;;;;15.27;100.00;100589.84;4949642;28;20042;-71
2023/09/20 06:32:24;;;;;;;9.27;2.58;;;;;;;15.31;100.00;100596.78;4950938;29;20042;-72
2023/09/20 06:34:50;;;;;;;9.20;2.40;;;;;;;15.39;100.00;100606.13;4950097;28;20031;-71
2023/09/20 06:37:15;;;;;;;9.90;2.53;;;;;;;15.45;100.00;100605.53;4950189;29;20039;-71
2023/09/20 06:39:44;;;;;;;8.02;2.42;;;;;;;15.49;100.00;100607.84;4949393;28;20444;-71
2023/09/20 06:42:12;;;;;;;6.55;2.50;;;;;;;15.52;100.00;100609.41;4966636;28;20479;-72
2023/09/20 06:44:44;;;;;;;5.93;2.85;;;;;;;15.55;100.00;100609.97;4998627;28;20038;-71
2023/09/20 06:47:09;;;;;;;6.38;2.60;;;;;;;15.62;100.00;100613.00;4950449;28;20118;-71
2023/09/20 06:49:38;;;;;;;7.78;2.72;;;;;;;15.71;100.00;100606.63;4980911;28;20367;-71
2023/09/20 06:52:06;;;;;;;10.02;2.33;;;;;;;15.82;100.00;100600.97;4950151;28;20110;-71
2023/09/20 06:54:35;;;;;;;11.55;2.80;;;;;;;15.94;100.00;100604.34;4949707;28;20038;-71
2023/09/20 06:57:03;;;;;;;5.28;2.60;;;;;;;16.06;100.00;100605.03;4949400;28;20043;-72
2023/09/20 06:59:33;;;;;;;9.10;3.08;;;;;;;16.13;100.00;100610.78;4949849;29;20102;-71
2023/09/20 07:01:59;;;;;;;5.72;3.13;;;;;;;16.23;100.00;100609.72;4949231;28;20054;-71
2023/09/20 07:04:28;;;;;;;5.63;2.58;;;;;;;16.32;100.00;100610.69;4964930;28;20085;-71
2023/09/20 07:06:54;;;;;;;4.95;2.58;;;;;;;16.36;99.56;100612.06;4950439;29;20398;-71
2023/09/20 07:09:20;;;;;;;6.60;2.55;;;;;;;16.38;98.86;100603.69;4963957;28;20507;-72
2023/09/20 07:11:47;;;;;;;7.63;2.45;;;;;;;16.41;98.16;100596.00;4949262;28;20050;-71
2023/09/20 07:14:14;;;;;;;6.63;2.85;;;;;;;16.46;98.64;100598.28;4949421;29;20110;-71
2023/09/20 07:16:39;;;;;;;7.53;2.20;;;;;;;16.49;98.07;100587.84;4948902;29;20049;-71
2023/09/20 07:19:05;;;;;;;6.35;2.20;;;;;;;16.54;97.75;100590.13;4948262;28;20023;-71
2023/09/20 07:21:37;;;;;;;7.80;2.75;;;;;;;16.55;98.24;100584.50;4949695;29;20051;-72
2023/09/20 07:24:09;;;;;;;10.77;2.65;;;;;;;16.56;98.30;100586.22;4948869;28;20108;-71
2023/09/20 07:26:38;;;;;;;5.28;2.00;;;;;;;16.61;98.85;100588.50;4949167;29;20123;-71
2023/09/20 07:29:05;;;;;;;9.80;2.72;;;;;;;16.65;97.27;100586.31;4949328;28;20039;-72
2023/09/20 07:31:36;;;;;;;6.28;2.50;;;;;;;16.70;97.44;100590.31;4948937;28;20042;-71
2023/09/20 07:34:06;;;;;;;6.40;2.65;;;;;;;16.80;96.70;100588.38;4952959;28;20098;-71
2023/09/20 07:36:35;;;;;;;7.82;2.97;;;;;;;16.89;96.28;100593.94;4949632;29;20082;-71
2023/09/20 07:39:04;;;;;;;9.25;2.28;;;;;;;16.95;96.50;100596.06;4949148;28;20586;-71
2023/09/20 07:41:30;;;;;;;5.55;2.40;;;;;;;17.09;95.37;100592.72;4949099;28;20039;-71
2023/09/20 07:43:55;;;;;;;6.40;2.00;;;;;;;17.16;95.78;100593.84;4949783;29;20081;-71
2023/09/20 07:46:23;;;;;;;11.75;2.53;;;;;;;17.23;95.15;100603.16;4948800;28;20051;-72
2023/09/20 07:48:50;;;;;;;5.32;2.65;;;;;;;17.27;93.96;100601.81;4949241;28;20483;-72
2023/09/20 07:51:23;;;;;;;5.35;2.22;;;;;;;17.26;93.17;100594.59;4949478;28;20091;-72
2023/09/20 07:53:53;;;;;;;5.50;2.47;;;;;;;17.24;94.63;100591.13;4948976;28;20053;-72
2023/09/20 07:56:20;;;;;;;6.70;2.60;;;;;;;17.37;93.38;100595.34;4978870;28;20126;-71
2023/09/20 07:58:46;;;;;;;5.47;2.22;;;;;;;17.41;92.84;100589.38;4949162;29;20047;-71
2023/09/20 08:01:12;;;;;;;8.48;3.15;;;;;;;17.47;92.48;100588.72;4948512;29;20070;-72
2023/09/20 08:03:53;;;;;;;10.20;2.78;;;;;;;17.54;92.44;100594.44;4949189;28;20078;-71
2023/09/20 08:06:27;;;;;;;6.00;2.80;;;;;;;17.60;93.33;100588.28;4949515;29;20098;-71
2023/09/20 08:08:54;;;;;;;6.55;2.70;;;;;;;17.73;91.63;100591.47;4949498;28;20051;-71
2023/09/20 08:11:20;;;;;;;5.95;1.98;;;;;;;17.84;91.30;100590.31;4948734;28;20035;-72
2023/09/20 08:13:45;;;;;;;7.88;2.70;;;;;;;17.91;90.89;100591.41;4949071;29;20035;-71
2023/09/20 08:16:12;;;;;;;6.32;2.38;;;;;;;17.91;90.39;100596.91;4948245;28;20484;-72
2023/09/20 08:21:23;;;;;;;7.20;2.92;;;;;;;18.10;90.79;100612.31;4980554;28;20039;-71
2023/09/20 09:02:18;;;;;;;4.88;2.28;;;;;;;19.29;85.19;100617.53;4952107;29;20043;-71
2023/09/20 09:04:53;;;;;;;8.93;3.17;;;;;;;19.38;83.17;100605.47;4951354;28;20446;-72
2023/09/20 09:07:25;;;;;;;7.47;2.90;;;;;;;19.45;83.89;100606.50;4951933;29;20038;-71
2023/09/20 09:09:52;;;;;;;5.60;2.67;;;;;;;19.58;82.82;100590.25;4982893;28;20407;-72
2023/09/20 09:12:18;;;;;;;7.30;2.70;;;;;;;19.64;82.43;100612.72;4966604;28;20134;-72
2023/09/20 09:14:47;;;;;;;7.90;2.70;;;;;;;19.70;82.97;100609.22;4981981;28;20597;-72
2023/09/20 09:17:13;;;;;;;8.55;2.75;;;;;;;19.64;80.88;100609.94;4951603;28;20491;-72
2023/09/20 09:19:39;;;;;;;7.97;2.90;;;;;;;19.69;82.18;100604.75;4951348;28;20202;-72
2023/09/20 09:22:06;;;;;;;7.25;2.63;;;;;;;19.78;81.57;100603.69;4951884;28;20122;-71
2023/09/20 09:24:45;;;;;;;8.90;2.30;;;;;;;19.84;82.49;100608.50;4951269;28;20040;-72
2023/09/20 09:27:11;;;;;;;6.05;2.70;;;;;;;19.84;81.28;100612.13;4951355;29;20113;-72
2023/09/20 09:29:38;;;;;;;7.32;2.33;;;;;;;19.83;80.54;100613.16;4950783;28;20035;-72
2023/09/20 09:32:04;;;;;;;4.95;2.83;;;;;;;19.84;83.07;100603.84;4982366;28;20388;-71
2023/09/20 09:34:30;;;;;;;7.88;2.28;;;;;;;19.87;79.36;100606.25;4951175;28;20019;-71
2023/09/20 09:36:56;;;;;;;6.97;2.47;;;;;;;19.94;82.71;100598.09;4951914;29;20089;-73
2023/09/20 09:39:24;;;;;;;7.85;2.10;;;;;;;20.05;80.03;100597.75;4951125;28;20051;-72
2023/09/20 09:41:51;;;;;;;5.20;2.53;;;;;;;20.18;82.13;100607.34;4981481;28;20070;-71
2023/09/20 09:44:17;;;;;;;3.83;2.13;;;;;;;20.25;80.05;100598.16;4950759;28;20109;-72
2023/09/20 09:46:43;;;;;;;5.82;2.17;;;;;;;20.21;80.59;100599.56;4950585;29;20467;-71
2023/09/20 09:49:16;;;;;;;4.22;2.08;;;;;;;20.23;78.67;100591.06;4951111;28;20043;-72
2023/09/20 09:51:45;;;;;;;7.97;1.98;;;;;;;20.24;76.96;100595.59;4951144;28;20491;-71
2023/09/20 09:54:11;;;;;;;6.13;2.17;;;;;;;20.34;79.38;100577.72;4950695;28;20051;-72
2023/09/20 09:56:37;;;;;;;6.80;1.80;;;;;;;20.43;78.13;100573.03;4950322;28;20054;-72
2023/09/20 09:59:04;;;;;;;5.43;2.53;;;;;;;20.40;78.30;100573.38;4981732;28;20126;-72
2023/09/20 10:01:36;;;;;;;5.70;2.00;;;;;;;20.45;77.73;100568.16;4949979;29;20128;-73
2023/09/20 10:04:05;;;;;;;6.00;2.20;;;;;;;20.58;76.27;100570.38;4950727;28;20089;-72
2023/09/20 10:06:35;;;;;;;5.30;2.13;;;;;;;20.81;78.49;100579.53;4950775;29;20487;-72
2023/09/20 10:09:04;;;;;;;7.13;2.00;;;;;;;21.11;78.75;100566.66;4981532;28;20384;-72
2023/09/20 10:11:30;;;;;;;5.05;2.10;;;;;;;21.25;76.48;100573.25;4950332;29;20129;-72
2023/09/20 10:14:00;;;;;;;4.50;2.03;;;;;;;21.32;74.75;100577.06;4950972;29;20097;-72
2023/09/20 10:16:26;;;;;;;9.50;2.30;;;;;;;21.40;74.56;100576.09;4950531;29;20046;-72
2023/09/20 10:18:53;;;;;;;5.50;2.17;;;;;;;21.42;74.13;100567.63;4950958;28;20038;-73
2023/09/20 10:21:23;;;;;;;3.67;1.85;;;;;;;21.47;73.75;100567.91;4950441;29;20043;-73
2023/09/20 10:24:00;;;;;;;5.53;2.13;;;;;;;21.65;72.94;100560.97;4950061;28;20039;-74
2023/09/20 10:26:29;;;;;;;6.97;2.28;;;;;;;21.76;71.51;100553.22;4950473;29;20088;-72
2023/09/20 10:29:24;;;;;;;5.80;2.03;;;;;;;21.86;73.54;100551.88;4950567;28;20930;-71
2023/09/20 10:31:53;;;;;;;8.10;2.30;;;;;;;22.03;73.08;100549.75;4949791;29;20035;-72
2023/09/20 10:34:21;;;;;;;5.13;1.73;;;;;;;22.09;70.29;100548.13;4950053;28;20043;-73
2023/09/20 10:36:53;;;;;;;9.60;1.75;;;;;;;22.22;70.93;100551.09;4950299;28;20629;-72
2023/09/20 10:39:19;;;;;;;6.97;1.75;;;;;;;22.25;74.61;100545.19;4949677;28;20097;-71
2023/09/20 10:41:52;;;;;;;1.98;1.58;;;;;;;22.37;71.07;100545.50;4949368;28;20050;-72
2023/09/20 10:44:28;;;;;;;10.55;1.95;;;;;;;22.31;69.41;100538.00;4949778;28;20090;-72
2023/09/20 10:46:56;;;;;;;4.55;1.40;;;;;;;22.30;68.66;100531.59;4950110;29;20049;-73
2023/09/20 10:49:50;;;;;;;6.25;1.50;;;;;;;22.29;69.99;100526.22;4964077;28;20110;-72
2023/09/20 10:52:31;;;;;;;3.42;1.52;;;;;;;22.25;70.72;100531.31;4950058;28;20492;-72
2023/09/20 10:55:18;;;;;;;4.18;1.67;;;;;;;22.22;69.59;100530.84;4968663;28;20490;-71
2023/09/20 10:57:46;;;;;;;5.43;1.60;;;;;;;22.14;69.85;100529.03;4969105;28;20090;-73
2023/09/20 11:00:14;;;;;;;7.00;1.85;;;;;;;22.03;68.22;100535.91;4951972;28;20054;-72
2023/09/20 11:02:40;;;;;;;4.28;1.30;;;;;;;21.94;70.30;100522.34;4950149;29;20038;-72
2023/09/20 11:05:06;;;;;;;4.03;1.48;;;;;;;21.97;70.15;100533.06;4949514;28;20043;-72
2023/09/20 11:07:32;;;;;;;5.25;1.55;;;;;;;22.00;70.25;100525.19;4980794;28;20142;-71
2023/09/20 11:09:58;;;;;;;5.32;1.63;;;;;;;21.95;69.28;100524.94;4983290;28;20048;-71
2023/09/20 11:12:23;;;;;;;3.78;1.27;;;;;;;21.90;69.55;100517.19;4968219;28;20042;-72
2023/09/20 11:14:50;;;;;;;4.60;1.52;;;;;;;21.89;71.27;100523.78;4949082;29;20086;-73
2023/09/20 11:17:16;;;;;;;4.47;1.27;;;;;;;21.88;70.05;100515.69;4949906;28;20499;-71
2023/09/20 11:19:42;;;;;;;6.10;1.40;;;;;;;21.88;68.87;100524.84;4949612;28;20046;-72
2023/09/20 11:22:07;;;;;;;4.40;1.55;;;;;;;21.84;69.27;100522.66;4949699;28;20480;-72
2023/09/20 11:24:36;;;;;;;6.03;1.80;;;;;;;21.79;70.11;100516.84;4948949;28;20178;-73
2023/09/20 11:27:02;;;;;;;5.30;1.30;;;;;;;21.79;68.28;100516.84;4980196;28;20119;-72
2023/09/20 11:29:27;;;;;;;4.55;1.70;;;;;;;21.89;68.22;100509.09;4949506;28;20118;-72
2023/09/20 11:31:59;;;;;;;5.18;1.50;;;;;;;22.10;70.06;100511.94;4964400;28;20048;-72
2023/09/20 11:34:25;;;;;;;3.65;1.30;;;;;;;22.22;67.10;100517.84;4949849;28;20542;-71
2023/09/20 11:36:55;;;;;;;6.13;1.42;;;;;;;22.24;65.96;100518.50;4949819;29;20051;-72
2023/09/20 11:39:30;;;;;;;6.07;1.90;;;;;;;22.31;66.65;100513.03;4949114;28;20035;-72
2023/09/20 11:42:01;;;;;;;6.25;1.70;;;;;;;22.25;67.27;100520.22;4964531;28;20053;-73
2023/09/20 11:44:26;;;;;;;3.40;1.63;;;;;;;22.22;66.46;100520.63;4959394;28;20071;-73
2023/09/20 11:46:57;;;;;;;4.38;1.52;;;;;;;22.17;68.68;100519.47;4980731;28;20376;-72
2023/09/20 11:49:24;;;;;;;5.93;1.60;;;;;;;22.20;66.06;100514.41;4950461;28;20097;-72
2023/09/20 11:51:50;;;;;;;3.20;1.67;;;;;;;22.10;68.10;100508.28;4949409;29;20074;-73
2023/09/20 11:54:16;;;;;;;6.28;1.60;;;;;;;22.15;67.67;100516.91;4949007;28;20043;-73
2023/09/20 11:56:47;;;;;;;6.47;1.83;;;;;;;22.15;68.21;100515.00;4949229;28;20043;-73
2023/09/20 11:59:14;;;;;;;4.70;1.70;;;;;;;22.23;67.14;100516.78;4949273;28;20039;-72
2023/09/20 12:01:41;;;;;;;3.85;1.60;;;;;;;22.23;68.39;100518.69;4950592;28;20059;-72
2023/09/20 12:04:09;;;;;;;5.45;1.52;;;;;;;22.21;69.16;100524.44;4952900;28;20035;-74